Weather at Abra Mine Camp Airport

Public forecast

Using degrees Celsius for public forecast. Weather courtesy of forecast.io.

Closest aviation weather report (METAR) to Abra Mine Camp Airport

Closest report is Port Hedland International Airport, 255.2 nm (472.7 km) N.

2024/05/21 00:21 (retrieved 12 minutes ago)

YPPD 210021Z AUTO 11019G29KT 9999 // NCD 23/M08 Q1019 RF00/0/000/0

Closest aviation forecast (TAF) to Abra Mine Camp Airport

Closest forecast is RAAF Base Curtin, 513.0 nm (950.0 km) NE.

2024/05/20 20:00 (retrieved 5 hours ago)

TAF YCIN 201812Z 2020/2108 11011KT CAVOK FM210000 10016KT CAVOK FM210400 11011KT CAVOK